sensor_id;sensor_type;location;lat;lon;timestamp;temperature;humidity
33841;DHT22;20142;28.494;-16.312;2022-11-20T00:02:57;17.50;81.50
33841;DHT22;20142;28.494;-16.312;2022-11-20T00:07:59;17.60;80.80
33841;DHT22;20142;28.494;-16.312;2022-11-20T00:13:00;17.60;80.50
33841;DHT22;20142;28.494;-16.312;2022-11-20T00:18:02;17.60;80.40
33841;DHT22;20142;28.494;-16.312;2022-11-20T00:23:04;17.70;80.20
33841;DHT22;20142;28.494;-16.312;2022-11-20T00:28:06;17.80;80.60
33841;DHT22;20142;28.494;-16.312;2022-11-20T00:33:08;17.80;79.60
33841;DHT22;20142;28.494;-16.312;2022-11-20T00:38:10;17.80;79.70
33841;DHT22;20142;28.494;-16.312;2022-11-20T00:43:11;17.80;79.50
33841;DHT22;20142;28.494;-16.312;2022-11-20T00:48:13;17.70;79.40
33841;DHT22;20142;28.494;-16.312;2022-11-20T00:53:14;17.50;79.80
33841;DHT22;20142;28.494;-16.312;2022-11-20T00:58:16;17.50;80.60
33841;DHT22;20142;28.494;-16.312;2022-11-20T01:03:18;17.50;81.20
33841;DHT22;20142;28.494;-16.312;2022-11-20T01:08:20;17.60;80.90
33841;DHT22;20142;28.494;-16.312;2022-11-20T01:13:22;17.60;81.40
33841;DHT22;20142;28.494;-16.312;2022-11-20T01:18:40;17.70;81.30
33841;DHT22;20142;28.494;-16.312;2022-11-20T01:23:44;17.70;81.40
33841;DHT22;20142;28.494;-16.312;2022-11-20T01:28:47;17.60;81.90
33841;DHT22;20142;28.494;-16.312;2022-11-20T01:33:52;17.40;82.10
33841;DHT22;20142;28.494;-16.312;2022-11-20T01:38:59;17.50;81.90
33841;DHT22;20142;28.494;-16.312;2022-11-20T01:44:03;17.40;82.10
33841;DHT22;20142;28.494;-16.312;2022-11-20T01:49:19;17.40;82.20
33841;DHT22;20142;28.494;-16.312;2022-11-20T01:54:28;17.30;81.50
33841;DHT22;20142;28.494;-16.312;2022-11-20T01:59:40;17.30;82.20
33841;DHT22;20142;28.494;-16.312;2022-11-20T02:04:45;17.40;81.70
33841;DHT22;20142;28.494;-16.312;2022-11-20T02:09:48;17.20;81.70
33841;DHT22;20142;28.494;-16.312;2022-11-20T02:14:49;17.30;82.00
33841;DHT22;20142;28.494;-16.312;2022-11-20T02:19:51;17.40;81.70
33841;DHT22;20142;28.494;-16.312;2022-11-20T02:24:53;17.40;81.70
33841;DHT22;20142;28.494;-16.312;2022-11-20T02:30:00;17.50;81.50
33841;DHT22;20142;28.494;-16.312;2022-11-20T02:35:53;17.50;81.50
33841;DHT22;20142;28.494;-16.312;2022-11-20T02:40:29;17.40;81.50
33841;DHT22;20142;28.494;-16.312;2022-11-20T02:45:31;17.40;81.40
33841;DHT22;20142;28.494;-16.312;2022-11-20T02:50:33;17.50;81.70
33841;DHT22;20142;28.494;-16.312;2022-11-20T02:55:35;17.50;81.70
33841;DHT22;20142;28.494;-16.312;2022-11-20T03:00:37;17.50;81.20
33841;DHT22;20142;28.494;-16.312;2022-11-20T03:05:38;17.60;81.00
33841;DHT22;20142;28.494;-16.312;2022-11-20T03:10:40;17.60;80.90
33841;DHT22;20142;28.494;-16.312;2022-11-20T03:15:42;17.50;81.20
33841;DHT22;20142;28.494;-16.312;2022-11-20T03:20:43;17.50;81.10
33841;DHT22;20142;28.494;-16.312;2022-11-20T03:25:45;17.60;80.90
33841;DHT22;20142;28.494;-16.312;2022-11-20T03:30:46;17.60;81.10
33841;DHT22;20142;28.494;-16.312;2022-11-20T03:35:48;17.60;80.90
33841;DHT22;20142;28.494;-16.312;2022-11-20T03:40:50;17.60;81.00
33841;DHT22;20142;28.494;-16.312;2022-11-20T03:45:51;17.60;80.80
33841;DHT22;20142;28.494;-16.312;2022-11-20T03:51:06;17.60;80.80
33841;DHT22;20142;28.494;-16.312;2022-11-20T03:56:29;17.80;81.20
33841;DHT22;20142;28.494;-16.312;2022-11-20T04:01:35;17.90;80.70
33841;DHT22;20142;28.494;-16.312;2022-11-20T04:06:38;17.80;80.50
33841;DHT22;20142;28.494;-16.312;2022-11-20T04:11:40;17.80;80.70
33841;DHT22;20142;28.494;-16.312;2022-11-20T04:16:42;17.80;80.40
33841;DHT22;20142;28.494;-16.312;2022-11-20T04:21:44;17.80;81.00
33841;DHT22;20142;28.494;-16.312;2022-11-20T04:26:46;17.80;80.70
33841;DHT22;20142;28.494;-16.312;2022-11-20T04:31:48;17.60;80.80
33841;DHT22;20142;28.494;-16.312;2022-11-20T04:36:49;17.50;81.20
33841;DHT22;20142;28.494;-16.312;2022-11-20T04:41:51;17.40;81.00
33841;DHT22;20142;28.494;-16.312;2022-11-20T04:47:12;17.40;81.30
33841;DHT22;20142;28.494;-16.312;2022-11-20T04:52:14;17.40;81.70
33841;DHT22;20142;28.494;-16.312;2022-11-20T04:57:16;17.40;81.80
33841;DHT22;20142;28.494;-16.312;2022-11-20T05:02:17;17.40;81.90
33841;DHT22;20142;28.494;-16.312;2022-11-20T05:07:19;17.40;81.90
33841;DHT22;20142;28.494;-16.312;2022-11-20T05:12:21;17.30;82.50
33841;DHT22;20142;28.494;-16.312;2022-11-20T05:17:22;17.40;82.70
33841;DHT22;20142;28.494;-16.312;2022-11-20T05:22:24;17.30;82.40
